Time;durP1;ratioP1;P1;durP2;ratioP2;P2;SDS_P1;SDS_P2;PMS_P1;PMS_P2;Temp;Humidity;BMP_temperature;BMP_pressure;BME280_temperature;BME280_humidity;BME280_pressure;Samples;Min_cycle;Max_cycle;Signal;HPM_P1;HPM_P2
2023/03/24 00:00:19;;;;;;;2.73;1.63;;;;;;;15.76;54.66;97725.47;4921685;29;20233;-57
2023/03/24 00:02:47;;;;;;;2.70;1.60;;;;;;;15.80;53.52;97715.31;4917637;29;20845;-56
2023/03/24 00:05:16;;;;;;;1.70;1.37;;;;;;;15.89;54.05;97718.56;4920486;29;20297;-57
2023/03/24 00:07:44;;;;;;;2.63;1.90;;;;;;;15.93;52.48;97709.22;4918227;29;20601;-57
2023/03/24 00:10:14;;;;;;;2.13;1.60;;;;;;;16.00;52.99;97699.47;4921352;29;20241;-57
2023/03/24 00:12:41;;;;;;;3.40;1.50;;;;;;;16.08;51.95;97701.09;4919809;29;20634;-57
2023/03/24 00:15:11;;;;;;;2.63;1.63;;;;;;;16.14;53.02;97696.78;4902408;29;20247;-57
2023/03/24 00:17:38;;;;;;;4.27;1.70;;;;;;;16.17;51.89;97699.84;4920402;29;20223;-57
2023/03/24 00:20:12;;;;;;;2.33;1.70;;;;;;;16.14;52.35;97707.31;4919344;29;20230;-58
2023/03/24 00:22:41;;;;;;;3.10;1.90;;;;;;;16.13;51.75;97698.63;4920062;29;20242;-58
2023/03/24 00:25:10;;;;;;;2.23;1.60;;;;;;;16.08;53.39;97701.88;4912196;29;20319;-58
2023/03/24 00:27:37;;;;;;;2.73;1.50;;;;;;;16.26;50.73;97697.75;4919428;29;20249;-57
2023/03/24 00:30:06;;;;;;;2.13;1.43;;;;;;;16.30;51.15;97700.78;4914722;29;20248;-57
2023/03/24 00:32:35;;;;;;;2.97;1.70;;;;;;;16.56;51.26;97699.00;4903431;29;20293;-57
2023/03/24 00:35:02;;;;;;;4.20;1.83;;;;;;;16.60;49.30;97689.66;4920125;29;20331;-58
2023/03/24 00:37:29;;;;;;;1.70;1.40;;;;;;;16.57;50.32;97688.25;4918061;29;20704;-58
2023/03/24 00:39:56;;;;;;;3.37;1.60;;;;;;;16.48;50.08;97673.72;4915245;29;20253;-57
2023/03/24 00:42:24;;;;;;;1.60;1.33;;;;;;;16.49;50.65;97665.59;4921464;29;20326;-57
2023/03/24 00:44:52;;;;;;;2.90;1.40;;;;;;;16.43;50.75;97658.53;4918673;29;20241;-58
2023/03/24 00:47:25;;;;;;;1.40;1.17;;;;;;;16.55;49.40;97656.06;4921776;29;20242;-57
2023/03/24 00:49:53;;;;;;;1.95;1.50;;;;;;;16.59;49.93;97637.97;4918160;29;20520;-57
2023/03/24 00:52:23;;;;;;;2.23;1.80;;;;;;;16.50;50.21;97625.06;4925278;29;20261;-58
2023/03/24 00:54:56;;;;;;;1.90;1.50;;;;;;;16.51;50.19;97652.22;4919705;29;20243;-57
2023/03/24 00:57:25;;;;;;;2.23;1.60;;;;;;;16.77;48.10;97645.94;4922614;29;20740;-57
2023/03/24 00:59:54;;;;;;;1.40;1.30;;;;;;;16.76;48.08;97646.19;4915601;29;20839;-57
2023/03/24 01:02:27;;;;;;;3.00;1.93;;;;;;;16.85;47.24;97629.09;4907056;29;20246;-58
2023/03/24 01:04:56;;;;;;;2.00;1.60;;;;;;;16.86;47.84;97641.25;4904847;29;20236;-57
2023/03/24 01:07:24;;;;;;;2.47;1.70;;;;;;;16.82;48.12;97634.78;4924928;29;20313;-57
2023/03/24 01:09:56;;;;;;;3.57;1.47;;;;;;;16.81;48.50;97635.81;4921016;29;20253;-57
2023/03/24 01:12:27;;;;;;;2.53;1.30;;;;;;;16.74;48.44;97633.22;4907235;29;20691;-57
2023/03/24 01:14:55;;;;;;;2.33;1.67;;;;;;;16.85;47.66;97633.53;4904094;29;20231;-58
2023/03/24 01:17:24;;;;;;;1.87;1.40;;;;;;;16.77;47.89;97643.31;4907519;29;20235;-55
2023/03/24 01:19:51;;;;;;;2.30;1.47;;;;;;;16.81;47.71;97646.34;4922213;29;20273;-58
2023/03/24 01:22:19;;;;;;;2.13;1.57;;;;;;;16.94;47.10;97624.31;4908681;29;20290;-57
2023/03/24 01:24:46;;;;;;;2.53;1.43;;;;;;;16.81;47.48;97614.72;4923286;29;20593;-57
2023/03/24 01:27:13;;;;;;;2.27;1.37;;;;;;;16.83;47.97;97631.13;4912027;29;20314;-57
2023/03/24 01:29:41;;;;;;;3.23;1.50;;;;;;;16.83;47.36;97624.00;4927751;29;20379;-58
2023/03/24 01:32:08;;;;;;;2.03;1.37;;;;;;;16.86;46.96;97617.50;4909449;29;20797;-57
2023/03/24 01:34:36;;;;;;;3.47;1.50;;;;;;;16.86;47.39;97616.69;4928389;29;20318;-58
2023/03/24 01:37:03;;;;;;;2.43;1.30;;;;;;;16.88;46.53;97612.84;4927556;29;20249;-57
2023/03/24 01:39:30;;;;;;;2.63;1.63;;;;;;;16.92;46.66;97624.56;4927090;29;20696;-57
2023/03/24 01:41:57;;;;;;;1.60;1.40;;;;;;;16.90;46.61;97612.59;4910085;29;20268;-58
2023/03/24 01:44:31;;;;;;;2.00;1.60;;;;;;;16.93;46.09;97626.19;4929196;29;20238;-57
2023/03/24 01:47:00;;;;;;;2.87;1.30;;;;;;;16.89;48.00;97621.53;4925339;29;20317;-58
2023/03/24 01:49:31;;;;;;;2.27;1.47;;;;;;;16.80;46.64;97626.28;4926983;29;20238;-57
2023/03/24 01:52:02;;;;;;;2.27;1.60;;;;;;;16.76;46.94;97617.19;4926533;29;20328;-58
2023/03/24 01:54:32;;;;;;;3.57;1.70;;;;;;;16.71;47.51;97609.13;4910903;29;20227;-58
2023/03/24 01:57:13;;;;;;;2.80;1.40;;;;;;;16.75;47.27;97632.19;4910351;29;21006;-58
2023/03/24 01:59:45;;;;;;;1.50;1.30;;;;;;;16.87;46.61;97618.31;4908905;29;20353;-58
2023/03/24 02:02:17;;;;;;;3.23;1.67;;;;;;;16.88;46.71;97623.38;4926819;29;20927;-57
2023/03/24 02:04:53;;;;;;;2.13;1.40;;;;;;;16.97;46.25;97624.72;4924323;29;20241;-58
2023/03/24 02:07:32;;;;;;;2.83;1.70;;;;;;;16.91;46.87;97619.50;4927900;29;20246;-58
2023/03/24 02:09:59;;;;;;;1.90;1.50;;;;;;;16.91;46.08;97608.94;4909287;29;20315;-58
2023/03/24 02:12:26;;;;;;;3.97;1.63;;;;;;;17.00;46.66;97607.69;4927967;29;20576;-58
2023/03/24 02:14:54;;;;;;;2.50;1.40;;;;;;;16.87;47.76;97608.59;4924769;29;20233;-58
2023/03/24 02:17:46;;;;;;;2.93;1.33;;;;;;;16.92;47.02;97603.47;4927461;29;20224;-58
2023/03/24 02:20:59;;;;;;;3.93;1.80;;;;;;;16.82;49.49;97595.25;4923204;29;20244;-58
2023/03/24 02:23:59;;;;;;;4.57;1.70;;;;;;;16.66;50.84;97596.59;4907970;29;20294;-58
2023/03/24 02:27:02;;;;;;;2.47;1.30;;;;;;;16.47;52.01;97595.72;4908744;29;20768;-58
2023/03/24 02:30:15;;;;;;;3.40;1.80;;;;;;;16.48;51.03;97584.19;4884122;29;20291;-57
2023/03/24 02:33:21;;;;;;;2.20;1.60;;;;;;;16.44;51.21;97586.41;4921777;29;20847;-57
2023/03/24 02:36:17;;;;;;;2.97;1.57;;;;;;;16.56;51.02;97588.34;4923329;29;20243;-58
2023/03/24 02:39:18;;;;;;;2.90;1.50;;;;;;;16.54;51.42;97564.88;4924350;29;20227;-58
2023/03/24 02:41:53;;;;;;;2.60;1.60;;;;;;;16.53;51.00;97558.00;4923960;29;20612;-58
2023/03/24 02:44:29;;;;;;;2.67;1.60;;;;;;;16.46;50.68;97560.66;4910205;29;20263;-58
2023/03/24 02:47:04;;;;;;;2.63;1.77;;;;;;;16.48;50.53;97578.91;4908156;29;20610;-58
2023/03/24 02:49:37;;;;;;;2.53;1.60;;;;;;;16.51;49.99;97568.72;4925253;29;20250;-58
2023/03/24 02:52:10;;;;;;;2.67;1.70;;;;;;;16.47;50.33;97567.56;4913549;29;20989;-58
2023/03/24 02:54:48;;;;;;;2.67;1.67;;;;;;;16.50;50.18;97569.75;4926034;29;20223;-58
2023/03/24 02:57:22;;;;;;;3.53;2.00;;;;;;;16.53;49.96;97564.06;4909122;29;20808;-57
2023/03/24 03:00:20;;;;;;;3.40;1.77;;;;;;;16.44;51.26;97554.81;4923781;29;20237;-57
2023/03/24 03:03:29;;;;;;;3.70;1.90;;;;;;;16.43;50.23;97569.00;4923584;29;20273;-57
2023/03/24 03:06:00;;;;;;;4.53;1.77;;;;;;;16.38;51.05;97572.28;4923873;29;20230;-57
2023/03/24 03:08:31;;;;;;;1.63;1.30;;;;;;;16.37;50.07;97575.16;4926974;29;20322;-57
2023/03/24 03:11:01;;;;;;;3.93;1.70;;;;;;;16.50;49.55;97582.13;4923532;29;20249;-57
2023/03/24 03:13:32;;;;;;;2.37;1.57;;;;;;;16.46;49.61;97587.00;4909664;29;20277;-57
2023/03/24 03:16:05;;;;;;;4.57;1.67;;;;;;;16.56;49.45;97573.38;4923999;29;20266;-56
2023/03/24 03:18:38;;;;;;;2.90;1.60;;;;;;;16.52;50.07;97585.34;4909669;29;20338;-56
2023/03/24 03:21:09;;;;;;;5.00;1.80;;;;;;;16.45;49.90;97571.44;4925202;29;20249;-55
2023/03/24 03:23:39;;;;;;;2.83;1.40;;;;;;;16.48;50.58;97568.38;4924397;29;20237;-57
2023/03/24 03:26:13;;;;;;;2.03;1.50;;;;;;;16.47;50.65;97579.94;4924115;29;20684;-56
2023/03/24 03:28:48;;;;;;;2.47;1.40;;;;;;;16.52;51.24;97575.63;4909667;29;20231;-57
2023/03/24 03:31:22;;;;;;;3.57;1.80;;;;;;;16.44;50.42;97567.97;4925403;29;20251;-56
2023/03/24 03:33:56;;;;;;;2.30;1.53;;;;;;;16.42;50.34;97577.94;4923092;29;20311;-55
2023/03/24 03:36:26;;;;;;;2.43;1.43;;;;;;;16.40;50.14;97580.00;4927122;29;20240;-56
2023/03/24 03:39:00;;;;;;;2.23;1.63;;;;;;;16.47;49.97;97559.66;4924745;29;20715;-56
2023/03/24 03:41:28;;;;;;;2.27;1.60;;;;;;;16.50;49.49;97585.56;4926962;29;20771;-56
2023/03/24 03:43:55;;;;;;;2.67;1.50;;;;;;;16.70;48.56;97571.41;4923937;29;20691;-56
2023/03/24 03:46:22;;;;;;;2.33;1.50;;;;;;;16.64;49.74;97582.81;4926343;29;20242;-56
2023/03/24 03:48:49;;;;;;;2.73;1.50;;;;;;;16.65;49.24;97584.44;4907743;29;20310;-57
2023/03/24 03:51:17;;;;;;;1.97;1.10;;;;;;;16.72;49.68;97590.44;4909778;29;20697;-56
2023/03/24 03:53:53;;;;;;;1.47;1.10;;;;;;;16.80;49.05;97584.13;4923124;29;20291;-55
2023/03/24 03:56:24;;;;;;;2.40;1.47;;;;;;;16.76;50.26;97590.84;4926275;29;20231;-56
2023/03/24 03:59:26;;;;;;;4.67;1.50;;;;;;;16.73;50.09;97597.34;4907911;29;20250;-56
2023/03/24 04:04:55;;;;;;;2.13;1.50;;;;;;;16.58;50.39;97624.03;5424097;23;20235;-55
2023/03/24 04:07:39;;;;;;;2.00;1.33;;;;;;;16.48;51.13;97635.00;4952069;28;20243;-57
2023/03/24 04:10:23;;;;;;;2.23;1.67;;;;;;;16.14;53.06;97652.88;4944127;28;20730;-56
2023/03/24 04:13:06;;;;;;;2.60;1.80;;;;;;;16.04;53.31;97634.88;4951030;28;20241;-54
2023/03/24 04:16:03;;;;;;;2.37;1.47;;;;;;;15.93;53.39;97704.78;4930096;28;20234;-57
2023/03/24 04:19:14;;;;;;;3.87;1.80;;;;;;;15.90;53.90;97651.78;4928563;28;20235;-56
2023/03/24 04:22:04;;;;;;;4.87;1.87;;;;;;;15.76;54.51;97658.88;4943479;28;20693;-57
2023/03/24 04:24:40;;;;;;;2.13;1.60;;;;;;;15.71;54.29;97677.09;4929168;29;20792;-56
2023/03/24 04:27:16;;;;;;;3.60;1.97;;;;;;;15.70;55.89;97717.56;4944965;28;20690;-55
2023/03/24 04:29:53;;;;;;;4.07;2.33;;;;;;;15.35;62.08;97769.44;4924642;28;20225;-56
2023/03/24 04:32:32;;;;;;;6.00;2.87;;;;;;;14.97;67.83;97767.38;5234438;23;20230;-57
2023/03/24 04:35:04;;;;;;;7.10;2.67;;;;;;;14.47;69.62;97773.69;4968813;28;20248;-55
2023/03/24 04:37:50;;;;;;;4.07;2.43;;;;;;;13.69;77.18;97787.03;4945430;28;20238;-57
2023/03/24 04:40:24;;;;;;;3.83;2.70;;;;;;;13.12;82.13;97781.75;4949193;28;20230;-57
2023/03/24 04:42:53;;;;;;;6.07;3.23;;;;;;;12.79;90.09;97785.66;4970531;28;20740;-57
2023/03/24 04:45:24;;;;;;;5.60;3.30;;;;;;;12.59;92.16;97784.66;4990207;23;20230;-57
2023/03/24 04:48:12;;;;;;;6.37;3.30;;;;;;;12.44;93.30;97772.41;4982862;28;20236;-57
2023/03/24 04:51:04;;;;;;;5.70;3.30;;;;;;;12.37;98.40;97734.88;4971325;28;20251;-56
2023/03/24 04:53:47;;;;;;;7.27;3.60;;;;;;;12.28;98.63;97755.09;4996545;28;20293;-57
2023/03/24 04:56:29;;;;;;;8.47;3.90;;;;;;;12.20;100.00;97760.41;4999572;28;20228;-56
2023/03/24 04:59:26;;;;;;;6.67;4.00;;;;;;;12.13;100.00;97755.13;4974928;28;20254;-57
2023/03/24 05:01:53;;;;;;;7.37;4.23;;;;;;;12.10;100.00;97743.22;4980607;28;20244;-57
2023/03/24 05:04:26;;;;;;;7.80;3.80;;;;;;;12.06;100.00;97741.97;4984339;28;20238;-56
2023/03/24 05:06:54;;;;;;;6.90;4.53;;;;;;;12.06;100.00;97754.22;4980731;28;20258;-56
2023/03/24 05:09:25;;;;;;;8.57;4.60;;;;;;;12.04;100.00;97748.34;4999619;28;20257;-57
2023/03/24 05:11:52;;;;;;;6.47;4.43;;;;;;;12.07;100.00;97735.75;4980527;28;20249;-57
2023/03/24 05:14:20;;;;;;;8.40;4.90;;;;;;;12.10;100.00;97734.56;4999663;28;20256;-55
2023/03/24 05:16:47;;;;;;;6.03;4.10;;;;;;;12.15;100.00;97736.63;4980536;28;20230;-56
2023/03/24 05:19:17;;;;;;;6.10;4.23;;;;;;;12.16;100.00;97731.22;4982750;28;20684;-57
2023/03/24 05:21:46;;;;;;;9.10;4.73;;;;;;;12.18;100.00;97731.03;4980134;28;20895;-57
2023/03/24 05:24:12;;;;;;;6.30;4.40;;;;;;;12.16;100.00;97738.25;4982573;28;20344;-57
2023/03/24 05:26:40;;;;;;;4.63;4.00;;;;;;;12.20;100.00;97740.31;4981888;28;20234;-57
2023/03/24 05:29:18;;;;;;;7.13;4.90;;;;;;;12.19;100.00;97741.31;4983500;28;20347;-57
2023/03/24 05:31:45;;;;;;;8.83;4.23;;;;;;;12.24;100.00;97740.75;4979721;28;20234;-57
2023/03/24 05:34:22;;;;;;;11.30;4.77;;;;;;;12.26;100.00;97749.22;4998276;28;20234;-56
2023/03/24 05:37:00;;;;;;;6.40;4.97;;;;;;;12.29;100.00;97748.06;4983226;28;20248;-57
2023/03/24 05:39:27;;;;;;;6.30;4.43;;;;;;;12.30;100.00;97729.53;4988356;28;20240;-57
2023/03/24 05:42:17;;;;;;;9.53;4.57;;;;;;;12.30;100.00;97728.75;4985861;28;20688;-57
2023/03/24 05:44:44;;;;;;;6.30;3.93;;;;;;;12.33;100.00;97725.75;4982328;28;20594;-55
2023/03/24 05:47:19;;;;;;;5.23;3.73;;;;;;;12.41;100.00;97723.03;4987054;28;21051;-55
2023/03/24 05:49:46;;;;;;;8.90;7.00;;;;;;;12.43;100.00;97715.81;4983483;28;20222;-55
2023/03/24 05:52:15;;;;;;;7.80;4.63;;;;;;;12.45;100.00;97726.09;4986538;28;20229;-57
2023/03/24 05:54:44;;;;;;;61.47;41.27;;;;;;;12.41;100.00;97733.50;4983040;28;20305;-57
2023/03/24 05:57:21;;;;;;;267.67;215.03;;;;;;;12.38;100.00;97726.81;4986609;28;20240;-57
2023/03/24 06:00:15;;;;;;;48.10;36.37;;;;;;;12.37;100.00;97706.88;4974653;28;20234;-56
2023/03/24 06:02:50;;;;;;;23.10;17.07;;;;;;;12.35;100.00;97723.78;4983176;28;20248;-57
2023/03/24 06:05:37;;;;;;;6.70;5.30;;;;;;;12.31;100.00;97725.13;4985237;28;20248;-57
2023/03/24 06:08:05;;;;;;;8.13;6.63;;;;;;;12.32;100.00;97732.00;4983949;28;20251;-57
2023/03/24 06:10:35;;;;;;;6.23;4.63;;;;;;;12.36;100.00;97726.19;5001792;28;20239;-57
2023/03/24 06:13:02;;;;;;;4.30;3.47;;;;;;;12.35;100.00;97724.56;4983094;28;20311;-57
2023/03/24 06:15:31;;;;;;;9.27;4.17;;;;;;;12.37;100.00;97727.81;4984802;28;20231;-56
2023/03/24 06:18:12;;;;;;;7.23;4.30;;;;;;;12.29;100.00;97733.16;4984383;28;20273;-57
2023/03/24 06:20:40;;;;;;;4.60;4.00;;;;;;;12.33;100.00;97736.22;4985010;28;20229;-58
2023/03/24 06:23:11;;;;;;;7.83;4.50;;;;;;;12.24;100.00;97741.56;4984393;28;20233;-57
2023/03/24 06:25:57;;;;;;;6.53;4.17;;;;;;;12.26;100.00;97728.28;4983523;28;20241;-58
2023/03/24 06:28:29;;;;;;;4.37;3.97;;;;;;;12.22;100.00;97737.50;4985992;28;20236;-58
2023/03/24 06:30:57;;;;;;;5.63;3.90;;;;;;;12.20;100.00;97742.94;4999709;28;20778;-58
2023/03/24 06:33:31;;;;;;;6.17;4.03;;;;;;;12.23;100.00;97745.19;5001049;28;20726;-58
2023/03/24 06:36:00;;;;;;;6.77;4.73;;;;;;;12.23;100.00;97760.06;4983451;28;20231;-57
2023/03/24 06:38:28;;;;;;;7.03;5.23;;;;;;;12.21;100.00;97765.47;4985711;28;20236;-58
2023/03/24 06:41:00;;;;;;;5.17;4.27;;;;;;;12.20;100.00;97768.25;4982870;28;20323;-58
2023/03/24 06:43:26;;;;;;;5.73;4.17;;;;;;;12.24;100.00;97770.34;4985230;28;20691;-57
2023/03/24 06:45:53;;;;;;;3.70;3.13;;;;;;;12.23;100.00;97765.28;4984304;28;21291;-57
2023/03/24 06:48:23;;;;;;;6.40;3.10;;;;;;;12.29;100.00;97774.22;4985575;28;20237;-58
2023/03/24 06:50:52;;;;;;;3.97;3.07;;;;;;;12.28;100.00;97785.69;4982366;28;20244;-58
2023/03/24 06:53:20;;;;;;;5.13;3.70;;;;;;;12.24;100.00;97778.19;4985295;28;20234;-58
2023/03/24 06:55:48;;;;;;;4.27;2.93;;;;;;;12.30;100.00;97776.66;4982944;28;20287;-57
2023/03/24 06:58:16;;;;;;;4.83;3.47;;;;;;;12.35;100.00;97776.13;5001411;28;20281;-57
2023/03/24 07:01:06;;;;;;;5.27;3.33;;;;;;;12.27;100.00;97790.09;4983798;28;20233;-57
2023/03/24 07:03:36;;;;;;;4.33;3.03;;;;;;;12.24;100.00;97793.91;4985690;28;20262;-57
2023/03/24 07:06:21;;;;;;;5.50;2.70;;;;;;;12.26;100.00;97780.63;4984373;28;20241;-56
2023/03/24 07:08:52;;;;;;;3.50;2.80;;;;;;;12.22;100.00;97800.28;4982191;28;20225;-57
2023/03/24 07:11:22;;;;;;;3.33;2.53;;;;;;;12.22;100.00;97816.81;4983987;28;20242;-56
2023/03/24 07:13:52;;;;;;;3.13;2.70;;;;;;;12.21;100.00;97820.44;4997661;28;20284;-57
2023/03/24 07:16:19;;;;;;;3.10;2.20;;;;;;;12.25;100.00;97819.06;4984607;28;20269;-56
2023/03/24 07:18:50;;;;;;;2.63;2.10;;;;;;;12.25;100.00;97820.88;4982233;28;20584;-55
2023/03/24 07:21:17;;;;;;;3.07;2.27;;;;;;;12.24;100.00;97833.16;4984846;28;20245;-56
2023/03/24 07:23:45;;;;;;;5.73;3.10;;;;;;;12.23;100.00;97821.06;4997918;28;20264;-57
2023/03/24 07:26:15;;;;;;;2.60;2.30;;;;;;;12.23;100.00;97826.28;4984965;28;20232;-56
2023/03/24 07:28:57;;;;;;;9.20;4.17;;;;;;;12.25;100.00;97816.47;4982146;28;20284;-57
2023/03/24 07:31:36;;;;;;;6.27;5.10;;;;;;;12.24;100.00;97843.63;4984286;28;20233;-57
2023/03/24 07:34:04;;;;;;;3.37;2.70;;;;;;;12.27;100.00;97844.25;4982151;28;20233;-57
2023/03/24 07:36:31;;;;;;;4.10;2.50;;;;;;;12.28;100.00;97804.00;5000401;28;20321;-56
2023/03/24 07:38:58;;;;;;;3.27;2.50;;;;;;;12.23;100.00;97787.03;4982732;28;20738;-57
2023/03/24 07:41:31;;;;;;;5.47;2.30;;;;;;;12.33;100.00;97819.97;4984330;28;20240;-57
2023/03/24 07:44:04;;;;;;;4.17;2.77;;;;;;;12.37;100.00;97824.66;4982242;28;20243;-56
2023/03/24 07:46:37;;;;;;;2.83;2.23;;;;;;;12.42;100.00;97807.59;4985583;28;20320;-56
2023/03/24 07:49:05;;;;;;;4.50;3.10;;;;;;;12.46;100.00;97795.75;4982386;28;20285;-56
2023/03/24 07:51:33;;;;;;;3.20;2.10;;;;;;;12.49;100.00;97792.78;5000012;28;20768;-56
2023/03/24 07:54:05;;;;;;;2.10;1.73;;;;;;;12.50;100.00;97776.06;4998334;28;20232;-56
2023/03/24 07:56:39;;;;;;;2.97;2.00;;;;;;;12.58;100.00;97767.31;4984619;28;20506;-57
2023/03/24 07:59:09;;;;;;;1.93;1.57;;;;;;;12.62;100.00;97766.75;4982549;28;20317;-57
2023/03/24 08:01:49;;;;;;;2.37;1.63;;;;;;;12.67;100.00;97777.47;4982763;28;20250;-57
2023/03/24 08:04:19;;;;;;;2.17;1.60;;;;;;;12.79;100.00;97769.13;4983733;28;20231;-57
2023/03/24 08:06:57;;;;;;;2.03;1.80;;;;;;;12.91;100.00;97764.19;4997863;28;20230;-57
2023/03/24 08:09:24;;;;;;;1.80;1.47;;;;;;;12.97;100.00;97756.41;4985548;28;20254;-57
2023/03/24 08:11:51;;;;;;;1.73;1.53;;;;;;;13.13;100.00;97755.34;4980406;28;20241;-57
2023/03/24 08:14:19;;;;;;;1.97;1.80;;;;;;;13.24;98.12;97767.13;4984779;28;20234;-56
2023/03/24 08:16:45;;;;;;;1.93;1.70;;;;;;;13.21;98.06;97766.69;4982630;28;20669;-58
2023/03/24 08:19:12;;;;;;;2.00;1.80;;;;;;;13.06;98.21;97770.19;4985753;28;20248;-57
2023/03/24 08:21:38;;;;;;;3.10;2.43;;;;;;;13.06;98.65;97783.28;4985040;28;20747;-56
2023/03/24 08:24:06;;;;;;;1.83;1.57;;;;;;;12.96;100.00;97785.41;4982787;28;20235;-57
2023/03/24 08:26:34;;;;;;;7.03;1.53;;;;;;;12.83;99.87;97797.38;4984706;28;20235;-57
2023/03/24 08:29:00;;;;;;;1.70;1.30;;;;;;;12.78;100.00;97799.72;4983097;28;20687;-56
2023/03/24 08:31:32;;;;;;;3.13;1.23;;;;;;;12.75;100.00;97810.56;4985239;28;20248;-57
2023/03/24 08:33:59;;;;;;;3.30;1.83;;;;;;;12.69;100.00;97787.78;4996700;28;20322;-57
2023/03/24 08:36:26;;;;;;;1.63;1.47;;;;;;;12.70;99.97;97800.66;4984417;28;20237;-55
2023/03/24 08:38:54;;;;;;;1.83;1.47;;;;;;;12.66;100.00;97816.94;4982956;28;20311;-57
2023/03/24 08:41:21;;;;;;;2.00;1.57;;;;;;;12.85;97.15;97812.91;4985341;28;20727;-57
2023/03/24 08:43:48;;;;;;;1.90;1.40;;;;;;;12.87;97.49;97797.81;4982005;28;20338;-57
2023/03/24 08:46:15;;;;;;;2.67;1.60;;;;;;;12.98;96.30;97799.13;4985444;28;20231;-57
2023/03/24 08:48:43;;;;;;;2.35;1.60;;;;;;;13.09;94.93;97801.25;4982229;28;20769;-57
2023/03/24 08:51:12;;;;;;;2.70;1.50;;;;;;;13.14;95.63;97793.66;4985120;28;20242;-56
2023/03/24 08:53:38;;;;;;;2.17;1.47;;;;;;;13.28;94.50;97804.25;4983934;28;20238;-56
2023/03/24 08:56:05;;;;;;;2.20;1.40;;;;;;;13.24;96.06;97811.69;4981981;28;20709;-57
2023/03/24 08:58:32;;;;;;;1.30;1.20;;;;;;;13.31;93.88;97811.72;4983170;28;20710;-57
2023/03/24 09:00:59;;;;;;;3.30;1.57;;;;;;;13.48;92.05;97811.50;4982992;28;20234;-58
2023/03/24 09:03:26;;;;;;;1.67;1.53;;;;;;;13.49;93.18;97805.25;4984750;28;20229;-55
2023/03/24 09:05:57;;;;;;;2.03;1.40;;;;;;;13.58;93.15;97801.50;4982012;28;20258;-57
2023/03/24 09:08:24;;;;;;;1.73;1.40;;;;;;;13.71;92.81;97793.72;4984537;28;20229;-56
2023/03/24 09:10:51;;;;;;;2.80;1.57;;;;;;;13.61;91.75;97813.41;4983613;28;20267;-57
2023/03/24 09:13:19;;;;;;;1.93;1.57;;;;;;;13.54;91.56;97816.78;4988421;28;20246;-57
2023/03/24 09:15:47;;;;;;;2.63;1.60;;;;;;;13.62;90.68;97817.66;4985991;28;20311;-57
2023/03/24 09:18:14;;;;;;;1.57;1.30;;;;;;;13.56;92.05;97804.28;4988421;28;20238;-57
2023/03/24 09:20:41;;;;;;;2.43;1.40;;;;;;;13.66;89.28;97813.66;4987797;28;20253;-57
2023/03/24 09:23:09;;;;;;;3.17;1.50;;;;;;;13.71;89.53;97829.63;4986773;28;20252;-56
2023/03/24 09:25:36;;;;;;;3.20;1.20;;;;;;;13.78;86.93;97825.22;4988151;28;20249;-58
2023/03/24 09:28:03;;;;;;;2.00;1.53;;;;;;;13.77;88.87;97780.84;4984909;28;20238;-57
2023/03/24 09:30:30;;;;;;;1.73;1.40;;;;;;;13.84;89.42;97795.63;4988329;28;20570;-57
2023/03/24 09:32:57;;;;;;;1.67;1.13;;;;;;;13.71;89.73;97813.88;4985982;28;20237;-57
2023/03/24 09:35:24;;;;;;;1.67;1.27;;;;;;;13.72;86.89;97797.16;4988067;28;20241;-57
2023/03/24 09:37:51;;;;;;;5.23;1.80;;;;;;;13.77;87.39;97804.47;4985395;28;20231;-57
2023/03/24 09:40:21;;;;;;;1.50;1.40;;;;;;;13.75;89.54;97809.09;4987904;28;20235;-56
2023/03/24 09:42:53;;;;;;;1.60;1.37;;;;;;;13.79;87.36;97815.53;4984485;28;20227;-57
2023/03/24 09:45:22;;;;;;;2.77;2.30;;;;;;;13.67;87.36;97823.97;4987579;28;20242;-57
2023/03/24 09:47:53;;;;;;;3.00;1.97;;;;;;;13.71;87.45;97803.41;4984369;28;20693;-57
2023/03/24 09:50:24;;;;;;;1.73;1.47;;;;;;;13.55;87.21;97809.75;4987475;28;20235;-57
2023/03/24 09:52:54;;;;;;;2.80;1.57;;;;;;;13.57;88.13;97807.75;4985075;28;20238;-58
2023/03/24 09:55:25;;;;;;;2.33;1.30;;;;;;;13.62;87.06;97807.16;4986672;28;20238;-57
2023/03/24 09:57:55;;;;;;;1.73;1.20;;;;;;;13.73;85.65;97812.72;4985686;28;20243;-57
2023/03/24 10:00:26;;;;;;;3.27;1.20;;;;;;;13.83;84.68;97803.66;5002411;28;20227;-57
2023/03/24 10:02:54;;;;;;;3.03;1.40;;;;;;;13.86;88.27;97822.47;4984871;28;20241;-57
2023/03/24 10:05:24;;;;;;;2.73;1.40;;;;;;;14.01;84.99;97827.59;4986837;28;20229;-56
2023/03/24 10:07:56;;;;;;;1.90;0.90;;;;;;;14.25;83.21;97827.34;4984355;28;20291;-57
2023/03/24 10:10:33;;;;;;;1.50;1.13;;;;;;;14.24;81.55;97820.47;4987826;28;20685;-56
2023/03/24 10:13:07;;;;;;;2.03;1.33;;;;;;;14.51;80.90;97831.91;4984379;28;20245;-55
2023/03/24 10:15:42;;;;;;;1.87;1.10;;;;;;;14.51;80.73;97834.53;4986143;28;20325;-58
2023/03/24 10:18:26;;;;;;;2.70;1.20;;;;;;;14.30;82.01;97838.06;4985854;28;20230;-57
2023/03/24 10:20:57;;;;;;;1.67;1.03;;;;;;;14.49;81.15;97851.47;4984427;28;20241;-57
2023/03/24 10:23:31;;;;;;;1.30;1.07;;;;;;;14.27;81.19;97847.13;4985541;28;20622;-58
2023/03/24 10:26:07;;;;;;;1.43;1.10;;;;;;;14.16;81.26;97861.63;4984756;28;20637;-57
2023/03/24 10:28:41;;;;;;;1.40;1.07;;;;;;;14.19;82.11;97868.28;4986227;28;20334;-58
2023/03/24 10:31:11;;;;;;;2.07;1.53;;;;;;;14.28;82.45;97854.00;4985721;28;20876;-57
2023/03/24 10:33:41;;;;;;;1.43;1.30;;;;;;;14.21;82.68;97852.34;4986682;28;20235;-57
2023/03/24 10:36:11;;;;;;;2.80;1.30;;;;;;;14.39;83.29;97859.72;4985195;28;20291;-56
2023/03/24 10:38:37;;;;;;;1.43;1.30;;;;;;;14.46;83.05;97850.06;4986327;28;20293;-58
2023/03/24 10:41:06;;;;;;;2.80;1.10;;;;;;;14.66;79.52;97857.22;4983421;28;20292;-56
2023/03/24 10:43:33;;;;;;;2.50;1.33;;;;;;;14.45;82.72;97880.72;4986513;28;20232;-57
2023/03/24 10:46:01;;;;;;;2.80;1.43;;;;;;;14.38;83.37;97902.72;4999892;28;20319;-57
2023/03/24 10:48:41;;;;;;;3.33;1.57;;;;;;;14.10;87.63;97917.50;4986703;28;20314;-57
2023/03/24 10:51:14;;;;;;;1.73;1.40;;;;;;;13.76;92.88;97910.38;4984213;28;20243;-58
2023/03/24 10:53:41;;;;;;;2.20;1.50;;;;;;;13.42;95.58;97910.03;4985190;28;20248;-57
2023/03/24 10:56:15;;;;;;;2.63;1.77;;;;;;;13.49;95.01;97910.13;4984694;28;20323;-57
2023/03/24 10:58:43;;;;;;;3.07;1.30;;;;;;;13.46;98.30;97910.50;4985615;28;20234;-56
2023/03/24 11:01:23;;;;;;;2.57;1.80;;;;;;;13.43;96.99;97903.81;4968432;28;20234;-57
2023/03/24 11:03:50;;;;;;;2.03;1.67;;;;;;;13.33;98.40;97901.47;4978704;28;20854;-56
2023/03/24 11:06:20;;;;;;;1.70;1.53;;;;;;;13.36;100.00;97908.97;4985699;28;20235;-57
2023/03/24 11:08:47;;;;;;;2.30;1.63;;;;;;;13.43;99.92;97901.19;4982047;28;20590;-54
2023/03/24 11:11:29;;;;;;;3.87;1.67;;;;;;;13.72;98.63;97888.94;4985236;28;20251;-54
2023/03/24 11:14:00;;;;;;;3.60;1.80;;;;;;;13.92;98.04;97868.09;4981126;28;20237;-56
2023/03/24 11:16:29;;;;;;;2.80;1.63;;;;;;;14.02;93.84;97886.94;4985596;28;20233;-56
2023/03/24 11:18:58;;;;;;;2.33;1.67;;;;;;;14.27;92.14;97880.47;4981841;28;20288;-56
2023/03/24 11:21:26;;;;;;;2.13;1.80;;;;;;;14.55;92.88;97896.16;4983965;28;20242;-56
2023/03/24 11:23:52;;;;;;;1.97;1.77;;;;;;;14.56;91.54;97897.78;4982075;28;20230;-57
2023/03/24 11:26:30;;;;;;;1.17;1.07;;;;;;;14.49;88.87;97877.72;4983564;28;20314;-56
2023/03/24 11:28:58;;;;;;;1.97;1.53;;;;;;;14.08;90.88;97882.75;4982330;28;20242;-56
2023/03/24 11:31:29;;;;;;;2.83;1.30;;;;;;;14.09;92.76;97873.88;4985871;28;20310;-59
2023/03/24 11:33:58;;;;;;;2.40;1.33;;;;;;;14.16;92.14;97885.22;4980739;28;20235;-59
2023/03/24 11:36:48;;;;;;;2.07;1.20;;;;;;;13.86;92.24;97893.28;4985149;28;20227;-58
2023/03/24 11:39:21;;;;;;;3.73;1.50;;;;;;;13.99;91.00;97887.31;4982038;28;20238;-59
2023/03/24 11:42:14;;;;;;;1.43;1.30;;;;;;;13.94;89.28;97894.94;4982077;28;21196;-58
2023/03/24 11:44:46;;;;;;;1.23;1.00;;;;;;;14.02;92.06;97912.38;4983369;28;20226;-59
2023/03/24 11:47:20;;;;;;;2.70;1.50;;;;;;;13.34;94.47;97905.72;4983222;28;20226;-59
2023/03/24 11:49:52;;;;;;;2.97;1.20;;;;;;;13.50;94.23;97893.41;4982915;28;20230;-59
2023/03/24 11:52:23;;;;;;;1.67;1.10;;;;;;;13.51;96.07;97908.94;4985927;28;20245;-58
2023/03/24 11:54:50;;;;;;;2.43;0.90;;;;;;;13.65;91.11;97899.38;4982109;28;20238;-58
2023/03/24 11:57:28;;;;;;;2.17;1.10;;;;;;;13.49;93.15;97904.88;4984587;28;20217;-60
2023/03/24 12:00:00;;;;;;;0.70;0.70;;;;;;;13.26;92.98;97906.63;4980529;28;20569;-57